createdAt,value
2017-11-15T04:59:46.862Z,24.37
2017-11-15T05:02:16.661Z,22.70
2017-11-15T05:04:45.642Z,24.33
2017-11-15T05:07:14.681Z,22.65
2017-11-15T05:09:43.680Z,22.73
2017-11-15T05:12:12.958Z,21.75
2017-11-15T05:14:42.757Z,23.50
2017-11-15T05:17:27.150Z,23.25
2017-11-15T05:19:56.118Z,22.23
2017-11-15T05:22:26.029Z,22.30
2017-11-15T05:24:55.766Z,24.67
2017-11-15T05:27:25.828Z,24.42
2017-11-15T05:29:55.071Z,24.63
2017-11-15T05:32:24.396Z,24.52
2017-11-15T05:34:53.546Z,26.48
2017-11-15T05:37:23.418Z,25.67
2017-11-15T05:39:52.430Z,26.35
2017-11-15T05:42:21.531Z,26.25
2017-11-15T05:44:50.874Z,26.62
2017-11-15T05:47:20.542Z,28.65
2017-11-15T05:49:49.707Z,28.23
2017-11-15T05:52:18.849Z,26.17
2017-11-15T05:54:49.022Z,26.52
2017-11-15T05:57:18.089Z,27.60
2017-11-15T05:59:47.233Z,27.80
2017-11-15T06:02:17.099Z,26.98
2017-11-15T06:04:46.904Z,28.95
2017-11-15T06:07:16.804Z,26.50
2017-11-15T06:09:46.637Z,28.50
2017-11-15T06:12:16.466Z,29.15
2017-11-15T06:14:45.449Z,27.17
2017-11-15T06:17:14.472Z,26.65
2017-11-15T06:19:43.649Z,29.52
2017-11-15T06:22:13.583Z,29.42
2017-11-15T06:24:42.776Z,28.95
2017-11-15T06:27:11.809Z,27.85
2017-11-15T06:29:40.892Z,29.67
2017-11-15T06:32:10.866Z,29.80
2017-11-15T06:34:40.083Z,28.77
2017-11-15T06:37:10.820Z,30.70
2017-11-15T06:39:39.779Z,26.45
2017-11-15T06:42:08.983Z,26.33
2017-11-15T06:44:38.076Z,26.75
2017-11-15T06:47:07.989Z,28.42
2017-11-15T06:49:37.816Z,25.77
2017-11-15T06:52:07.881Z,27.77
2017-11-15T06:54:37.096Z,28.45
2017-11-15T06:57:06.970Z,26.67
2017-11-15T06:59:36.516Z,28.98
2017-11-15T07:02:06.693Z,26.42
2017-11-15T07:04:36.509Z,27.05
2017-11-15T07:07:06.975Z,25.30
2017-11-15T07:09:37.769Z,27.35
2017-11-15T07:12:07.933Z,28.08
2017-11-15T07:14:38.837Z,27.25
2017-11-15T07:17:08.187Z,27.90
2017-11-15T07:19:37.340Z,27.13
2017-11-15T07:22:07.331Z,25.95
2017-11-15T07:24:36.877Z,26.10
2017-11-15T07:27:06.800Z,23.67
2017-11-15T07:29:36.626Z,26.80
2017-11-15T07:32:05.677Z,24.48
2017-11-15T07:34:35.029Z,25.60
2017-11-15T07:37:04.153Z,24.80
2017-11-15T07:39:33.249Z,26.25
2017-11-15T07:42:02.297Z,23.98
2017-11-15T07:44:32.273Z,23.80
2017-11-15T07:47:01.332Z,21.10
2017-11-15T07:49:30.432Z,22.42
2017-11-15T07:52:00.331Z,23.12
2017-11-15T07:54:29.463Z,23.70
2017-11-15T07:56:58.600Z,20.65
2017-11-15T07:59:28.439Z,22.40
2017-11-15T08:01:57.683Z,22.67
2017-11-15T08:04:27.464Z,20.80
2017-11-15T08:06:56.451Z,23.25
2017-11-15T08:09:25.560Z,22.90
2017-11-15T08:11:54.967Z,21.62
2017-11-15T08:14:24.917Z,25.80
2017-11-15T08:16:54.073Z,25.15
2017-11-15T08:19:23.381Z,22.60
2017-11-15T08:21:52.426Z,24.73
2017-11-15T08:24:22.847Z,20.80
2017-11-15T08:26:52.732Z,19.90
2017-11-15T08:29:21.853Z,20.27
2017-11-15T08:31:51.944Z,19.98
2017-11-15T08:34:22.070Z,19.10
2017-11-15T08:36:52.164Z,21.00
2017-11-15T08:39:21.712Z,21.12
2017-11-15T08:41:50.960Z,19.90
2017-11-15T08:44:20.210Z,21.00
2017-11-15T08:46:52.467Z,23.27
2017-11-15T08:49:22.412Z,21.98
2017-11-15T08:51:51.516Z,22.98
2017-11-15T08:54:20.684Z,22.10
2017-11-15T08:56:49.951Z,23.40
2017-11-15T08:59:19.293Z,23.77
2017-11-15T09:01:49.317Z,23.00
2017-11-15T09:04:18.564Z,21.60
2017-11-15T09:06:47.837Z,22.13
2017-11-15T09:09:23.119Z,20.02
2017-11-15T09:11:54.528Z,19.37
2017-11-15T09:14:23.903Z,19.98
2017-11-15T09:16:53.705Z,21.60
2017-11-15T09:19:23.788Z,21.45
2017-11-15T09:21:53.683Z,19.90
2017-11-15T09:24:22.841Z,18.87
2017-11-15T09:26:52.941Z,19.12
2017-11-15T09:29:22.226Z,19.05
2017-11-15T09:31:52.193Z,18.85
2017-11-15T09:34:21.538Z,18.12
2017-11-15T09:36:50.825Z,17.02
2017-11-15T09:39:20.061Z,19.73
2017-11-15T09:41:50.575Z,20.80
2017-11-15T09:44:20.189Z,17.35
2017-11-15T09:46:49.305Z,17.50
2017-11-15T09:49:19.314Z,19.60
2017-11-15T09:51:54.344Z,19.08
2017-11-15T09:54:23.448Z,17.58
2017-11-15T09:56:53.264Z,19.30
2017-11-15T09:59:23.217Z,19.62
2017-11-15T10:01:53.273Z,18.92
2017-11-15T10:04:22.532Z,19.17
2017-11-15T10:06:52.067Z,20.65
2017-11-15T10:09:21.415Z,17.55
2017-11-15T10:11:54.224Z,18.52
2017-11-15T10:14:23.474Z,18.48
2017-11-15T10:16:53.287Z,19.05
2017-11-15T10:19:22.648Z,19.92
2017-11-15T10:21:58.686Z,19.33
2017-11-15T10:24:29.888Z,19.37
2017-11-15T11:10:42.905Z,16.30
2017-11-15T11:13:12.786Z,17.08
2017-11-15T11:15:43.941Z,17.23
2017-11-15T11:18:14.400Z,17.83
2017-11-15T11:20:47.139Z,18.37
2017-11-15T11:23:17.271Z,19.10
2017-11-15T11:25:46.391Z,16.75
2017-11-15T11:28:16.366Z,16.40
2017-11-15T11:30:45.882Z,17.08
2017-11-15T11:33:15.006Z,17.65
2017-11-15T11:35:45.776Z,15.82
2017-11-15T11:38:14.947Z,17.25
2017-11-15T11:40:46.152Z,16.92
2017-11-15T11:43:15.551Z,17.52
2017-11-15T11:45:45.803Z,17.35
2017-11-15T11:48:15.872Z,16.05
2017-11-15T11:50:46.060Z,18.90
2017-11-15T11:53:15.417Z,18.20
2017-11-15T11:55:50.172Z,15.88
2017-11-15T11:58:22.424Z,17.20
2017-11-15T12:00:53.005Z,18.50
2017-11-15T12:03:24.777Z,16.58
2017-11-15T12:05:55.893Z,16.95
2017-11-15T12:08:31.543Z,16.00
2017-11-15T12:11:03.644Z,15.55
2017-11-15T12:13:34.535Z,15.52
2017-11-15T12:16:26.652Z,15.90
2017-11-15T12:18:58.768Z,15.93
2017-11-15T12:21:50.551Z,16.37
2017-11-15T12:24:23.405Z,15.18
2017-11-15T12:26:57.622Z,15.38
2017-11-15T12:29:29.676Z,16.17
2017-11-15T12:32:10.870Z,14.40
2017-11-15T12:34:43.137Z,16.17
2017-11-15T12:37:17.136Z,15.25
2017-11-15T12:39:47.252Z,12.93
2017-11-15T12:42:19.429Z,14.05
2017-11-15T12:44:51.394Z,14.02
2017-11-15T12:47:23.914Z,14.98
2017-11-15T12:49:53.757Z,13.68
2017-11-15T12:52:28.238Z,13.85
2017-11-15T12:54:59.452Z,13.07
2017-11-15T12:57:31.687Z,12.02
2017-11-15T13:00:16.229Z,12.35
2017-11-15T13:02:48.903Z,13.20
2017-11-15T13:05:20.415Z,13.75
2017-11-15T13:07:52.128Z,12.37
2017-11-15T13:10:23.973Z,12.70
2017-11-15T13:12:56.418Z,11.15
2017-11-15T13:15:35.480Z,12.70
2017-11-15T13:18:08.400Z,13.18
2017-11-15T13:20:44.959Z,13.20
2017-11-15T13:23:17.657Z,13.60
2017-11-15T13:25:50.237Z,13.50
2017-11-15T13:28:22.525Z,13.07
2017-11-15T13:30:58.526Z,14.32
2017-11-15T13:33:31.120Z,12.55
2017-11-15T13:36:06.463Z,13.50
2017-11-15T13:38:40.464Z,13.10
2017-11-15T13:41:16.643Z,14.13
2017-11-15T13:43:49.049Z,13.40
2017-11-15T13:46:25.980Z,13.85
2017-11-15T13:49:01.053Z,13.20
2017-11-15T13:51:35.986Z,13.77
2017-11-15T13:54:10.194Z,13.13
2017-11-15T13:56:45.979Z,12.85
2017-11-15T13:59:21.331Z,12.50
2017-11-15T14:01:57.045Z,12.98
2017-11-15T14:04:32.682Z,12.93
2017-11-15T14:07:12.013Z,13.18
2017-11-15T14:09:50.866Z,13.90
2017-11-15T14:12:23.836Z,12.20
2017-11-15T14:14:58.683Z,12.05
2017-11-15T14:17:33.387Z,12.98
2017-11-15T14:20:16.194Z,13.35
2017-11-15T14:22:49.234Z,12.80
2017-11-15T14:25:25.087Z,14.50
2017-11-15T14:28:01.003Z,14.38
2017-11-15T14:30:41.337Z,14.43
2017-11-15T14:33:19.409Z,14.65
2017-11-15T14:35:55.130Z,13.93
2017-11-15T14:38:29.699Z,16.25
2017-11-15T14:41:05.575Z,15.18
2017-11-15T14:43:39.950Z,16.10
2017-11-15T14:48:57.702Z,15.95
2017-11-15T14:51:36.156Z,15.65
2017-11-15T14:54:12.765Z,15.60
2017-11-15T14:56:49.743Z,15.88
2017-11-15T14:59:24.469Z,15.25
2017-11-15T15:02:01.379Z,16.40
2017-11-15T15:04:44.357Z,16.67
2017-11-15T15:07:21.369Z,15.70
2017-11-15T15:09:57.191Z,15.52
2017-11-15T15:12:35.789Z,15.70
2017-11-15T15:15:22.351Z,17.02
2017-11-15T15:18:02.425Z,15.38
2017-11-15T15:20:47.357Z,16.35
2017-11-15T15:23:24.560Z,17.00
2017-11-15T15:26:00.401Z,16.95
2017-11-15T15:28:54.485Z,16.52
2017-11-15T15:31:29.958Z,16.37
2017-11-15T15:34:07.816Z,17.12
2017-11-15T15:36:47.456Z,15.45
2017-11-15T15:39:26.759Z,15.60
2017-11-15T15:42:02.519Z,16.73
2017-11-15T15:44:42.794Z,14.63
2017-11-15T15:47:19.973Z,16.20
2017-11-15T15:50:01.374Z,16.08
2017-11-15T15:52:46.854Z,16.48
2017-11-15T15:55:32.362Z,17.62
2017-11-15T15:58:13.614Z,17.20
2017-11-15T16:01:10.732Z,16.90
2017-11-15T16:03:49.581Z,15.35
2017-11-15T16:06:38.446Z,17.67
2017-11-15T16:09:17.279Z,17.52
2017-11-15T16:11:51.275Z,18.00
2017-11-15T16:14:35.944Z,16.75
2017-11-15T16:17:16.737Z,17.23
2017-11-15T17:03:52.689Z,19.58
2017-11-15T17:06:36.199Z,19.77
2017-11-15T17:09:30.617Z,19.75
2017-11-15T17:12:11.442Z,19.15
2017-11-15T17:14:56.148Z,16.40
2017-11-15T17:17:34.656Z,19.25
2017-11-15T17:20:30.984Z,16.87
2017-11-15T17:28:48.561Z,17.87
2017-11-15T17:31:29.277Z,17.67
2017-11-15T17:34:10.439Z,16.85
2017-11-15T17:36:55.714Z,16.67
2017-11-15T17:39:46.010Z,17.30
2017-11-15T17:42:26.041Z,15.93
2017-11-15T17:45:20.033Z,14.93
2017-11-15T17:47:59.382Z,12.35
2017-11-15T17:50:41.897Z,15.38
2017-11-15T17:53:18.771Z,15.15
2017-11-15T17:56:00.701Z,14.32
2017-11-15T17:58:46.590Z,13.65
2017-11-15T18:01:28.121Z,14.23
2017-11-15T18:06:58.540Z,14.43
2017-11-15T18:09:41.716Z,15.10
2017-11-15T18:12:20.256Z,15.23
2017-11-15T18:14:59.067Z,15.00
2017-11-15T18:17:42.576Z,16.20
2017-11-15T18:20:25.313Z,15.68
2017-11-15T18:23:06.752Z,15.77
2017-11-15T18:25:45.185Z,14.40
2017-11-15T18:28:31.117Z,16.08
2017-11-15T18:31:06.888Z,16.25
2017-11-15T18:33:43.918Z,15.60
2017-11-15T18:36:27.627Z,14.93
2017-11-15T18:39:19.566Z,13.88
2017-11-15T18:42:14.287Z,14.65
2017-11-15T18:44:50.002Z,14.13
2017-11-15T18:47:29.006Z,14.15
2017-11-15T18:50:20.193Z,14.13
2017-11-15T18:55:45.929Z,15.05
2017-11-15T19:01:14.521Z,13.32
2017-11-15T19:03:55.781Z,12.18
2017-11-15T19:06:40.717Z,12.37
2017-11-15T19:09:20.129Z,11.20
2017-11-15T19:12:03.685Z,13.02
2017-11-15T19:14:48.292Z,16.15
2017-11-15T19:17:27.401Z,16.42
2017-11-15T19:22:49.359Z,14.15
2017-11-15T19:25:27.155Z,12.75
2017-11-15T19:31:01.822Z,15.63
2017-11-15T19:33:37.843Z,20.35
2017-11-15T19:36:28.671Z,16.33
2017-11-15T19:39:10.459Z,16.50
2017-11-15T19:41:48.404Z,15.38
2017-11-15T19:44:35.142Z,11.88
2017-11-15T19:47:15.017Z,10.20
2017-11-15T19:49:55.488Z,8.10
2017-11-15T19:52:40.638Z,7.60
2017-11-15T19:58:20.490Z,6.72
2017-11-15T20:01:10.568Z,7.15
2017-11-15T20:03:50.366Z,6.68
2017-11-15T20:06:39.318Z,7.32
2017-11-15T20:09:21.006Z,6.85
2017-11-15T20:12:09.864Z,6.90
2017-11-15T20:14:48.180Z,6.97
2017-11-15T20:17:31.852Z,7.53
2017-11-15T20:23:22.132Z,7.00
2017-11-15T20:26:01.015Z,7.03
2017-11-15T20:28:40.158Z,7.97
2017-11-15T20:34:21.880Z,8.30
2017-11-15T20:37:00.575Z,9.75
2017-11-15T20:39:45.410Z,8.60
2017-11-15T20:42:36.674Z,8.80
2017-11-15T20:45:26.894Z,9.40
2017-11-15T20:48:04.777Z,9.40
2017-11-15T20:50:50.523Z,9.13
2017-11-15T20:53:33.815Z,9.15
2017-11-15T20:56:20.157Z,9.38
2017-11-15T20:59:00.523Z,9.55
2017-11-15T21:01:48.820Z,9.05
2017-11-15T21:04:39.102Z,9.30
2017-11-15T21:07:22.011Z,8.70
2017-11-15T21:10:13.277Z,7.60
2017-11-15T21:12:57.789Z,7.87
2017-11-15T21:15:37.867Z,8.65
2017-11-15T21:18:15.091Z,7.90
2017-11-15T21:20:54.799Z,8.82
2017-11-15T21:23:41.753Z,8.10
2017-11-15T21:26:16.807Z,8.75
2017-11-15T21:28:58.715Z,8.88
2017-11-15T21:31:42.860Z,8.20
2017-11-15T21:34:20.825Z,7.95
2017-11-15T21:36:58.868Z,8.60
2017-11-15T21:39:32.029Z,9.55
2017-11-15T21:42:05.200Z,8.40
2017-11-15T21:44:37.555Z,8.50
2017-11-15T21:47:08.439Z,8.50
2017-11-15T21:49:44.236Z,9.00
2017-11-15T21:52:18.340Z,8.02
2017-11-15T21:54:52.782Z,9.02
2017-11-15T21:57:25.032Z,8.45
2017-11-15T22:00:00.756Z,8.00
2017-11-15T22:02:32.913Z,8.98
2017-11-15T22:05:18.594Z,8.80
2017-11-15T22:07:54.261Z,9.20
2017-11-15T22:10:35.405Z,9.05
2017-11-15T22:13:17.578Z,8.88
2017-11-15T22:16:01.212Z,8.25
2017-11-15T22:18:43.319Z,7.47
2017-11-15T22:21:27.428Z,8.82
2017-11-15T22:24:04.101Z,8.40
2017-11-15T22:26:42.714Z,7.82
2017-11-15T22:30:38.596Z,7.70
2017-11-15T22:33:13.812Z,7.50
2017-11-15T22:35:52.326Z,7.97
2017-11-15T22:38:31.443Z,7.85
2017-11-15T22:41:11.376Z,7.70
2017-11-15T22:43:42.265Z,8.60
2017-11-15T22:46:16.344Z,9.30
2017-11-15T22:48:53.888Z,9.90
2017-11-15T22:51:28.473Z,7.90
2017-11-15T22:53:59.149Z,8.95
2017-11-15T22:56:31.805Z,9.45
2017-11-15T22:59:08.033Z,8.10
2017-11-15T23:01:48.024Z,8.90
2017-11-15T23:04:21.357Z,8.18
2017-11-15T23:06:52.311Z,8.45
2017-11-15T23:09:23.466Z,9.07
2017-11-15T23:11:55.683Z,9.00
2017-11-15T23:14:26.747Z,8.98
2017-11-15T23:16:59.139Z,9.57
2017-11-15T23:19:29.956Z,9.32
2017-11-15T23:22:00.537Z,9.23
2017-11-15T23:24:32.305Z,9.70
2017-11-15T23:27:02.034Z,10.13
2017-11-15T23:29:32.104Z,8.88
2017-11-15T23:32:01.457Z,9.10
2017-11-15T23:34:31.015Z,9.85
2017-11-15T23:37:01.233Z,7.07
2017-11-15T23:39:32.114Z,7.70
2017-11-15T23:42:02.212Z,7.35
2017-11-15T23:44:31.294Z,7.25
2017-11-15T23:47:00.541Z,7.87
2017-11-15T23:49:29.882Z,7.78
2017-11-15T23:51:59.268Z,7.45
2017-11-15T23:54:28.419Z,7.80
2017-11-15T23:56:58.225Z,7.05
2017-11-15T23:59:28.148Z,7.30
